Flight Track Log - Related Links

Times and Time Zones

All times are in EDT time to prevent confusion due to time zone crossing. See the UAL4401 flight status page for this flight to view local times or setup timezone preferences in your user account.


Time Position Orientation Groundspeed Altitude Reporting Facility
EDT Latitude Longitude Course Direction KTS MPH feet Rate Location/Type
Tue 12:55:00 PM 38.9667 -78.4575 270° West  Level FlightAware Approximate
Tue 12:56:00 PM 38.9787 -78.5723 282° West  Level FlightAware Approximate
Tue 12:57:00 PM 38.9834 -78.6881 270° West  Level FlightAware Approximate
Tue 12:58:00 PM 38.9868 -78.8043 275° West  Level FlightAware Approximate
Tue 12:59:00 PM 38.9940 -78.9204 275° West  Level FlightAware Approximate
Tue 01:00:00 PM 39.0033 -79.0361 282° West  Level FlightAware Approximate
Tue 01:01:00 PM 39.0167 -79.1508 270° West  Level FlightAware Approximate
Tue 01:02:00 PM 39.0167 -79.2672 270° West  Level FlightAware Approximate
Tue 01:03:00 PM 39.0231 -79.3833 276° West  Level FlightAware Approximate
Tue 01:04:00 PM 39.0320 -79.4993 276° West  Level FlightAware Approximate
Tue 01:05:00 PM 39.0333 -79.6157 270° West  Level FlightAware Approximate
Tue 01:06:00 PM 39.0511 -79.7299 276° West  Level FlightAware Approximate
Tue 01:07:00 PM 39.0608 -79.8457 276° West  Level FlightAware Approximate
Tue 01:08:00 PM 39.0683 -79.9618 274° West  Level FlightAware Approximate
Tue 01:09:00 PM 39.0748 -80.0781 274° West  Level FlightAware Approximate
Tue 01:10:00 PM 39.0812 -80.1944 274° West  Level FlightAware Approximate
Tue 01:11:00 PM 39.0833 -80.3109 270° West  Level FlightAware Approximate
Tue 01:12:00 PM 39.0845 -80.4274 278° West  Level FlightAware Approximate
Tue 01:13:00 PM 39.0974 -80.5428 278° West  Level FlightAware Approximate
Tue 01:14:00 PM 39.1000 -80.6592 270° West  Level FlightAware Approximate
Tue 01:15:00 PM 39.1000 -80.7758 270° West  Level FlightAware Approximate
Tue 01:16:00 PM 39.1069 -80.8921 275° West  Level FlightAware Approximate
Tue 01:17:00 PM 39.1141 -81.0084 275° West  Level FlightAware Approximate
Tue 01:18:00 PM 39.1294 -81.1215 293° West  Level FlightAware Approximate
Tue 01:19:00 PM 39.1708 -81.2249 303° West  Level FlightAware Approximate
Tue 01:20:00 PM 39.2136 -81.3276 297° West  Level FlightAware Approximate
Tue 01:21:00 PM 39.2542 -81.4320 297° West  Level FlightAware Approximate
Tue 01:22:00 PM 39.2948 -81.5365 297° West  Level FlightAware Approximate
Tue 01:23:00 PM 39.3329 -81.6426 295° West  Level FlightAware Approximate
Tue 01:24:00 PM 39.3707 -81.7490 295° West  Level FlightAware Approximate
Tue 01:25:00 PM 39.4083 -81.8555 295° West  Level FlightAware Approximate
Tue 01:26:00 PM 39.4458 -81.9621 295° West  Level FlightAware Approximate
Tue 01:27:00 PM 39.4833 -82.0688 294° West  Level FlightAware Approximate
Tue 01:28:00 PM 39.5272 -82.1710 303° West  Level FlightAware Approximate
Tue 01:29:00 PM 39.5564 -82.2806 290° West  Level FlightAware Approximate
Tue 01:30:00 PM 39.6059 -82.3762 318° Northwest  Level FlightAware Approximate
Tue 01:31:00 PM 39.6732 -82.4548 318° Northwest  Level FlightAware Approximate
Tue 01:32:00 PM 39.7278 -82.5477 315° West  Level FlightAware Approximate
Tue 01:33:00 PM 39.7922 -82.6304 315° West  Level FlightAware Approximate
Tue 01:34:00 PM 39.8548 -82.7155 311° West  Level FlightAware Approximate
Tue 01:35:00 PM 39.9212 -82.7949 314° West  Level FlightAware Approximate
Tue 01:36:00 PM 39.9824 -82.8819 311° West  Level FlightAware Approximate
Tue 01:37:00 PM 39.9833 -82.8833 311° West  Level FlightAware Approximate
Tue 01:38:00 PM 39.9969 -82.8922 311° West  Level Estimated
Tue 01:39:00 PM 39.9969 -82.8922 311° West  Level Estimated
Tue 01:40:00 PM 39.9969 -82.8922 311° West  Level Estimated
Tue 01:41:00 PM 39.9969 -82.8922 311° West  Level Estimated

Login

Don't have an account? Register now (free) for customized features, flight alerts, and more!